sensor_id;sensor_type;location;lat;lon;timestamp;P1;durP1;ratioP1;P2;durP2;ratioP2
920;SDS011;447;51.332;6.778;2023-06-04T00:00:13;3.73;;;2.20;;
920;SDS011;447;51.332;6.778;2023-06-04T00:02:42;1.80;;;1.67;;
920;SDS011;447;51.332;6.778;2023-06-04T00:05:08;2.37;;;1.90;;
920;SDS011;447;51.332;6.778;2023-06-04T00:07:34;2.20;;;1.93;;
920;SDS011;447;51.332;6.778;2023-06-04T00:10:03;2.50;;;2.30;;
920;SDS011;447;51.332;6.778;2023-06-04T00:12:30;2.33;;;2.10;;
920;SDS011;447;51.332;6.778;2023-06-04T00:14:56;2.20;;;1.87;;
920;SDS011;447;51.332;6.778;2023-06-04T00:17:25;2.27;;;2.07;;
920;SDS011;447;51.332;6.778;2023-06-04T00:19:51;2.93;;;1.93;;
920;SDS011;447;51.332;6.778;2023-06-04T00:22:19;2.53;;;1.77;;
920;SDS011;447;51.332;6.778;2023-06-04T00:24:49;3.70;;;1.60;;
920;SDS011;447;51.332;6.778;2023-06-04T00:27:15;6.87;;;2.07;;
920;SDS011;447;51.332;6.778;2023-06-04T00:29:41;3.70;;;2.13;;
920;SDS011;447;51.332;6.778;2023-06-04T00:32:09;2.50;;;1.90;;
920;SDS011;447;51.332;6.778;2023-06-04T00:34:35;2.03;;;1.57;;
920;SDS011;447;51.332;6.778;2023-06-04T00:37:01;2.10;;;1.90;;
920;SDS011;447;51.332;6.778;2023-06-04T00:39:27;3.40;;;2.20;;
920;SDS011;447;51.332;6.778;2023-06-04T00:41:54;2.10;;;1.57;;
920;SDS011;447;51.332;6.778;2023-06-04T00:44:20;2.50;;;1.60;;
920;SDS011;447;51.332;6.778;2023-06-04T00:46:50;4.27;;;2.00;;
920;SDS011;447;51.332;6.778;2023-06-04T00:49:20;3.07;;;1.97;;
920;SDS011;447;51.332;6.778;2023-06-04T00:51:46;2.43;;;1.80;;
920;SDS011;447;51.332;6.778;2023-06-04T00:54:19;2.63;;;2.10;;
920;SDS011;447;51.332;6.778;2023-06-04T00:56:46;2.57;;;2.10;;
920;SDS011;447;51.332;6.778;2023-06-04T00:59:13;3.10;;;1.80;;
920;SDS011;447;51.332;6.778;2023-06-04T01:01:47;2.00;;;1.80;;
920;SDS011;447;51.332;6.778;2023-06-04T01:04:41;3.63;;;2.37;;
920;SDS011;447;51.332;6.778;2023-06-04T01:07:20;2.30;;;2.10;;
920;SDS011;447;51.332;6.778;2023-06-04T01:09:52;1.90;;;1.70;;
920;SDS011;447;51.332;6.778;2023-06-04T01:12:21;4.77;;;2.20;;
920;SDS011;447;51.332;6.778;2023-06-04T01:14:47;2.60;;;2.00;;
920;SDS011;447;51.332;6.778;2023-06-04T01:17:21;2.10;;;1.90;;
920;SDS011;447;51.332;6.778;2023-06-04T01:25:33;2.80;;;2.13;;
920;SDS011;447;51.332;6.778;2023-06-04T01:28:13;2.30;;;2.10;;
920;SDS011;447;51.332;6.778;2023-06-04T01:30:43;2.37;;;2.10;;
920;SDS011;447;51.332;6.778;2023-06-04T01:33:12;2.60;;;2.33;;
920;SDS011;447;51.332;6.778;2023-06-04T01:35:39;2.30;;;2.10;;
920;SDS011;447;51.332;6.778;2023-06-04T01:38:05;2.00;;;1.80;;
920;SDS011;447;51.332;6.778;2023-06-04T01:40:34;1.90;;;1.80;;
920;SDS011;447;51.332;6.778;2023-06-04T01:43:03;2.30;;;2.10;;
920;SDS011;447;51.332;6.778;2023-06-04T01:45:33;2.27;;;1.77;;
920;SDS011;447;51.332;6.778;2023-06-04T01:48:03;2.50;;;2.00;;
920;SDS011;447;51.332;6.778;2023-06-04T01:50:30;3.83;;;2.07;;
920;SDS011;447;51.332;6.778;2023-06-04T01:52:57;6.83;;;1.97;;
920;SDS011;447;51.332;6.778;2023-06-04T01:55:26;2.60;;;2.20;;
920;SDS011;447;51.332;6.778;2023-06-04T01:57:56;2.33;;;1.93;;
920;SDS011;447;51.332;6.778;2023-06-04T02:00:24;2.33;;;2.10;;
920;SDS011;447;51.332;6.778;2023-06-04T02:02:55;2.10;;;1.90;;
920;SDS011;447;51.332;6.778;2023-06-04T02:05:22;2.90;;;1.90;;
920;SDS011;447;51.332;6.778;2023-06-04T02:07:48;3.63;;;1.80;;
920;SDS011;447;51.332;6.778;2023-06-04T02:10:17;2.67;;;2.07;;
920;SDS011;447;51.332;6.778;2023-06-04T02:12:52;2.40;;;2.20;;
920;SDS011;447;51.332;6.778;2023-06-04T02:15:24;3.13;;;2.00;;
920;SDS011;447;51.332;6.778;2023-06-04T02:18:11;2.80;;;2.20;;
920;SDS011;447;51.332;6.778;2023-06-04T02:20:43;2.47;;;1.63;;
920;SDS011;447;51.332;6.778;2023-06-04T02:23:10;2.23;;;1.93;;
920;SDS011;447;51.332;6.778;2023-06-04T02:25:39;3.10;;;1.97;;
920;SDS011;447;51.332;6.778;2023-06-04T02:28:06;2.90;;;2.60;;
920;SDS011;447;51.332;6.778;2023-06-04T02:30:34;2.87;;;1.90;;
920;SDS011;447;51.332;6.778;2023-06-04T02:33:00;2.60;;;2.07;;
920;SDS011;447;51.332;6.778;2023-06-04T02:35:29;3.00;;;1.77;;
920;SDS011;447;51.332;6.778;2023-06-04T02:37:56;2.33;;;1.90;;
920;SDS011;447;51.332;6.778;2023-06-04T02:40:28;2.20;;;1.63;;
920;SDS011;447;51.332;6.778;2023-06-04T02:42:55;2.63;;;1.60;;
920;SDS011;447;51.332;6.778;2023-06-04T02:45:22;2.00;;;1.70;;
920;SDS011;447;51.332;6.778;2023-06-04T02:47:56;2.43;;;1.80;;
920;SDS011;447;51.332;6.778;2023-06-04T02:50:22;2.20;;;1.80;;
920;SDS011;447;51.332;6.778;2023-06-04T02:52:50;2.07;;;1.80;;
920;SDS011;447;51.332;6.778;2023-06-04T02:55:17;1.63;;;1.50;;
920;SDS011;447;51.332;6.778;2023-06-04T02:57:43;2.57;;;2.03;;
920;SDS011;447;51.332;6.778;2023-06-04T03:00:12;1.83;;;1.60;;
920;SDS011;447;51.332;6.778;2023-06-04T03:02:43;2.10;;;1.60;;
920;SDS011;447;51.332;6.778;2023-06-04T03:05:12;5.60;;;2.10;;
920;SDS011;447;51.332;6.778;2023-06-04T03:07:42;2.27;;;1.97;;
920;SDS011;447;51.332;6.778;2023-06-04T03:10:10;3.40;;;2.43;;
920;SDS011;447;51.332;6.778;2023-06-04T03:12:39;2.70;;;2.00;;
920;SDS011;447;51.332;6.778;2023-06-04T03:15:08;3.17;;;1.80;;
920;SDS011;447;51.332;6.778;2023-06-04T03:17:35;4.60;;;1.70;;
920;SDS011;447;51.332;6.778;2023-06-04T03:20:01;3.07;;;2.30;;
920;SDS011;447;51.332;6.778;2023-06-04T03:22:29;2.07;;;1.80;;
920;SDS011;447;51.332;6.778;2023-06-04T03:24:55;3.00;;;1.70;;
920;SDS011;447;51.332;6.778;2023-06-04T03:27:23;1.87;;;1.70;;
920;SDS011;447;51.332;6.778;2023-06-04T03:29:50;2.23;;;2.00;;
920;SDS011;447;51.332;6.778;2023-06-04T03:32:19;1.83;;;1.70;;
920;SDS011;447;51.332;6.778;2023-06-04T03:34:51;2.13;;;1.90;;
920;SDS011;447;51.332;6.778;2023-06-04T03:37:17;3.20;;;1.67;;
920;SDS011;447;51.332;6.778;2023-06-04T03:39:43;3.07;;;1.90;;
920;SDS011;447;51.332;6.778;2023-06-04T03:42:14;2.33;;;1.83;;
920;SDS011;447;51.332;6.778;2023-06-04T03:44:46;2.77;;;1.97;;
920;SDS011;447;51.332;6.778;2023-06-04T03:47:15;1.90;;;1.70;;
920;SDS011;447;51.332;6.778;2023-06-04T03:49:44;2.53;;;1.60;;
920;SDS011;447;51.332;6.778;2023-06-04T03:52:12;1.80;;;1.50;;
920;SDS011;447;51.332;6.778;2023-06-04T03:54:40;2.20;;;2.00;;
920;SDS011;447;51.332;6.778;2023-06-04T03:57:07;2.90;;;1.77;;
920;SDS011;447;51.332;6.778;2023-06-04T03:59:33;3.33;;;2.37;;
920;SDS011;447;51.332;6.778;2023-06-04T04:01:59;2.30;;;2.03;;
920;SDS011;447;51.332;6.778;2023-06-04T04:04:27;4.43;;;2.33;;
920;SDS011;447;51.332;6.778;2023-06-04T04:06:53;2.97;;;1.70;;
920;SDS011;447;51.332;6.778;2023-06-04T04:09:21;2.40;;;2.00;;
920;SDS011;447;51.332;6.778;2023-06-04T04:11:50;2.30;;;1.87;;
920;SDS011;447;51.332;6.778;2023-06-04T04:14:19;2.00;;;1.80;;
920;SDS011;447;51.332;6.778;2023-06-04T04:16:46;2.97;;;1.80;;
920;SDS011;447;51.332;6.778;2023-06-04T04:19:12;2.10;;;1.50;;
920;SDS011;447;51.332;6.778;2023-06-04T04:21:41;1.97;;;1.53;;
920;SDS011;447;51.332;6.778;2023-06-04T04:24:23;2.43;;;1.90;;
920;SDS011;447;51.332;6.778;2023-06-04T04:26:54;2.37;;;1.87;;
920;SDS011;447;51.332;6.778;2023-06-04T04:29:21;3.70;;;2.03;;
920;SDS011;447;51.332;6.778;2023-06-04T04:31:58;3.20;;;1.80;;
920;SDS011;447;51.332;6.778;2023-06-04T04:34:52;2.33;;;1.90;;
920;SDS011;447;51.332;6.778;2023-06-04T04:37:23;2.90;;;1.80;;
920;SDS011;447;51.332;6.778;2023-06-04T04:39:53;2.90;;;1.80;;
920;SDS011;447;51.332;6.778;2023-06-04T04:42:25;3.20;;;1.90;;
920;SDS011;447;51.332;6.778;2023-06-04T04:44:51;3.80;;;1.70;;
920;SDS011;447;51.332;6.778;2023-06-04T04:47:20;2.20;;;1.80;;
920;SDS011;447;51.332;6.778;2023-06-04T04:49:49;3.17;;;2.10;;
920;SDS011;447;51.332;6.778;2023-06-04T04:52:17;2.13;;;1.80;;
920;SDS011;447;51.332;6.778;2023-06-04T04:54:44;2.47;;;1.77;;
920;SDS011;447;51.332;6.778;2023-06-04T04:57:15;2.27;;;1.83;;
920;SDS011;447;51.332;6.778;2023-06-04T04:59:45;4.60;;;1.90;;
920;SDS011;447;51.332;6.778;2023-06-04T05:02:14;2.70;;;1.80;;
920;SDS011;447;51.332;6.778;2023-06-04T05:04:40;2.90;;;1.90;;
920;SDS011;447;51.332;6.778;2023-06-04T05:07:07;1.90;;;1.70;;
920;SDS011;447;51.332;6.778;2023-06-04T05:09:32;3.80;;;1.90;;
920;SDS011;447;51.332;6.778;2023-06-04T05:11:58;2.47;;;2.03;;
920;SDS011;447;51.332;6.778;2023-06-04T05:14:27;2.70;;;1.97;;
920;SDS011;447;51.332;6.778;2023-06-04T05:16:57;2.17;;;1.60;;
920;SDS011;447;51.332;6.778;2023-06-04T05:19:25;2.60;;;1.80;;
920;SDS011;447;51.332;6.778;2023-06-04T05:21:53;2.70;;;1.83;;
920;SDS011;447;51.332;6.778;2023-06-04T05:24:19;1.80;;;1.70;;
920;SDS011;447;51.332;6.778;2023-06-04T05:26:48;2.03;;;1.80;;
920;SDS011;447;51.332;6.778;2023-06-04T05:29:18;2.63;;;1.90;;
920;SDS011;447;51.332;6.778;2023-06-04T05:31:45;2.07;;;1.60;;
920;SDS011;447;51.332;6.778;2023-06-04T05:34:14;1.90;;;1.70;;
920;SDS011;447;51.332;6.778;2023-06-04T05:36:42;2.90;;;2.20;;
920;SDS011;447;51.332;6.778;2023-06-04T05:39:09;2.37;;;1.90;;
920;SDS011;447;51.332;6.778;2023-06-04T05:41:45;1.80;;;1.47;;
920;SDS011;447;51.332;6.778;2023-06-04T05:44:11;3.30;;;2.03;;
920;SDS011;447;51.332;6.778;2023-06-04T05:46:38;2.27;;;2.07;;
920;SDS011;447;51.332;6.778;2023-06-04T05:49:04;2.33;;;2.00;;
920;SDS011;447;51.332;6.778;2023-06-04T05:51:30;1.93;;;1.70;;
920;SDS011;447;51.332;6.778;2023-06-04T05:54:01;2.67;;;1.73;;
920;SDS011;447;51.332;6.778;2023-06-04T05:56:33;2.67;;;1.80;;
920;SDS011;447;51.332;6.778;2023-06-04T05:59:00;1.83;;;1.57;;
920;SDS011;447;51.332;6.778;2023-06-04T06:01:28;2.37;;;2.17;;
920;SDS011;447;51.332;6.778;2023-06-04T06:03:56;2.17;;;1.97;;
920;SDS011;447;51.332;6.778;2023-06-04T06:06:25;2.63;;;2.00;;
920;SDS011;447;51.332;6.778;2023-06-04T06:08:51;2.77;;;1.80;;
920;SDS011;447;51.332;6.778;2023-06-04T06:11:20;2.83;;;2.00;;
920;SDS011;447;51.332;6.778;2023-06-04T06:13:48;2.27;;;1.70;;
920;SDS011;447;51.332;6.778;2023-06-04T06:16:15;1.70;;;1.50;;
920;SDS011;447;51.332;6.778;2023-06-04T06:18:44;3.90;;;1.70;;
920;SDS011;447;51.332;6.778;2023-06-04T06:21:13;2.07;;;1.70;;
920;SDS011;447;51.332;6.778;2023-06-04T06:23:39;2.27;;;1.83;;
920;SDS011;447;51.332;6.778;2023-06-04T06:26:06;2.63;;;2.20;;
920;SDS011;447;51.332;6.778;2023-06-04T06:28:37;2.40;;;1.97;;
920;SDS011;447;51.332;6.778;2023-06-04T06:31:04;5.23;;;1.80;;
920;SDS011;447;51.332;6.778;2023-06-04T06:33:31;2.37;;;1.80;;
920;SDS011;447;51.332;6.778;2023-06-04T06:35:57;1.87;;;1.77;;
920;SDS011;447;51.332;6.778;2023-06-04T06:38:26;2.10;;;1.60;;
920;SDS011;447;51.332;6.778;2023-06-04T06:40:55;2.87;;;2.13;;
920;SDS011;447;51.332;6.778;2023-06-04T06:43:21;2.90;;;1.63;;
920;SDS011;447;51.332;6.778;2023-06-04T06:45:47;1.60;;;1.50;;
920;SDS011;447;51.332;6.778;2023-06-04T06:48:13;2.03;;;1.80;;
920;SDS011;447;51.332;6.778;2023-06-04T06:50:39;2.73;;;1.80;;
920;SDS011;447;51.332;6.778;2023-06-04T06:53:05;2.13;;;1.93;;
920;SDS011;447;51.332;6.778;2023-06-04T06:55:31;1.70;;;1.60;;
920;SDS011;447;51.332;6.778;2023-06-04T06:57:57;2.17;;;1.83;;
920;SDS011;447;51.332;6.778;2023-06-04T07:00:23;3.00;;;1.80;;
920;SDS011;447;51.332;6.778;2023-06-04T07:02:51;1.60;;;1.50;;
920;SDS011;447;51.332;6.778;2023-06-04T07:05:17;1.73;;;1.60;;
920;SDS011;447;51.332;6.778;2023-06-04T07:07:47;1.70;;;1.50;;
920;SDS011;447;51.332;6.778;2023-06-04T07:10:15;1.67;;;1.57;;
920;SDS011;447;51.332;6.778;2023-06-04T07:12:44;2.37;;;1.90;;
920;SDS011;447;51.332;6.778;2023-06-04T07:15:12;2.40;;;1.77;;
920;SDS011;447;51.332;6.778;2023-06-04T07:17:38;2.63;;;2.10;;
920;SDS011;447;51.332;6.778;2023-06-04T07:20:09;2.00;;;1.80;;
920;SDS011;447;51.332;6.778;2023-06-04T07:22:37;3.00;;;2.07;;
920;SDS011;447;51.332;6.778;2023-06-04T07:25:04;2.57;;;1.80;;
920;SDS011;447;51.332;6.778;2023-06-04T07:27:33;1.50;;;1.40;;
920;SDS011;447;51.332;6.778;2023-06-04T07:29:59;1.80;;;1.70;;
920;SDS011;447;51.332;6.778;2023-06-04T07:32:26;2.90;;;1.80;;
920;SDS011;447;51.332;6.778;2023-06-04T07:34:51;2.90;;;1.93;;
920;SDS011;447;51.332;6.778;2023-06-04T07:37:18;2.10;;;1.90;;
920;SDS011;447;51.332;6.778;2023-06-04T07:39:44;4.50;;;2.00;;
920;SDS011;447;51.332;6.778;2023-06-04T07:42:13;2.20;;;1.60;;
920;SDS011;447;51.332;6.778;2023-06-04T07:44:39;2.40;;;2.10;;
920;SDS011;447;51.332;6.778;2023-06-04T07:47:05;2.30;;;2.10;;
920;SDS011;447;51.332;6.778;2023-06-04T07:49:34;2.30;;;1.90;;
920;SDS011;447;51.332;6.778;2023-06-04T07:52:00;2.40;;;1.60;;
920;SDS011;447;51.332;6.778;2023-06-04T07:54:27;2.17;;;1.70;;
920;SDS011;447;51.332;6.778;2023-06-04T07:56:53;2.00;;;1.57;;
920;SDS011;447;51.332;6.778;2023-06-04T07:59:22;2.47;;;1.73;;
920;SDS011;447;51.332;6.778;2023-06-04T08:01:49;3.47;;;1.77;;
920;SDS011;447;51.332;6.778;2023-06-04T08:04:17;2.20;;;1.87;;
920;SDS011;447;51.332;6.778;2023-06-04T08:06:51;1.97;;;1.70;;
920;SDS011;447;51.332;6.778;2023-06-04T08:09:17;2.40;;;2.20;;
920;SDS011;447;51.332;6.778;2023-06-04T08:11:43;2.80;;;1.80;;
920;SDS011;447;51.332;6.778;2023-06-04T08:14:12;2.20;;;2.00;;
920;SDS011;447;51.332;6.778;2023-06-04T08:16:40;2.73;;;2.10;;
920;SDS011;447;51.332;6.778;2023-06-04T08:19:23;2.43;;;2.23;;
920;SDS011;447;51.332;6.778;2023-06-04T08:21:57;2.10;;;1.87;;
920;SDS011;447;51.332;6.778;2023-06-04T08:24:37;2.40;;;2.10;;
920;SDS011;447;51.332;6.778;2023-06-04T08:27:24;2.60;;;2.20;;
920;SDS011;447;51.332;6.778;2023-06-04T08:30:02;2.40;;;2.20;;
920;SDS011;447;51.332;6.778;2023-06-04T08:32:52;2.60;;;2.20;;
920;SDS011;447;51.332;6.778;2023-06-04T08:35:20;2.43;;;2.23;;
920;SDS011;447;51.332;6.778;2023-06-04T08:37:46;2.30;;;2.10;;
920;SDS011;447;51.332;6.778;2023-06-04T08:40:12;3.60;;;2.50;;
920;SDS011;447;51.332;6.778;2023-06-04T08:42:40;2.67;;;2.30;;
920;SDS011;447;51.332;6.778;2023-06-04T08:45:11;3.43;;;2.70;;
920;SDS011;447;51.332;6.778;2023-06-04T08:47:49;2.90;;;2.70;;
920;SDS011;447;51.332;6.778;2023-06-04T08:50:20;3.30;;;2.93;;
920;SDS011;447;51.332;6.778;2023-06-04T08:52:54;3.23;;;2.77;;
920;SDS011;447;51.332;6.778;2023-06-04T08:55:25;2.77;;;2.43;;
920;SDS011;447;51.332;6.778;2023-06-04T08:57:52;3.53;;;3.23;;
920;SDS011;447;51.332;6.778;2023-06-04T09:00:18;2.97;;;2.73;;
920;SDS011;447;51.332;6.778;2023-06-04T09:02:47;2.90;;;2.60;;
920;SDS011;447;51.332;6.778;2023-06-04T09:05:20;2.70;;;2.50;;
920;SDS011;447;51.332;6.778;2023-06-04T09:07:54;3.40;;;2.70;;
920;SDS011;447;51.332;6.778;2023-06-04T09:10:25;3.80;;;2.90;;
920;SDS011;447;51.332;6.778;2023-06-04T09:12:54;3.10;;;2.77;;
920;SDS011;447;51.332;6.778;2023-06-04T09:15:25;3.13;;;2.90;;
920;SDS011;447;51.332;6.778;2023-06-04T09:17:53;2.90;;;2.67;;
920;SDS011;447;51.332;6.778;2023-06-04T09:20:21;3.80;;;2.70;;
920;SDS011;447;51.332;6.778;2023-06-04T09:22:50;2.80;;;2.30;;
920;SDS011;447;51.332;6.778;2023-06-04T09:25:22;2.97;;;2.77;;
920;SDS011;447;51.332;6.778;2023-06-04T09:27:56;3.33;;;2.80;;
920;SDS011;447;51.332;6.778;2023-06-04T09:30:32;3.80;;;3.00;;
920;SDS011;447;51.332;6.778;2023-06-04T09:33:08;2.73;;;2.53;;
920;SDS011;447;51.332;6.778;2023-06-04T09:35:40;3.50;;;2.57;;
920;SDS011;447;51.332;6.778;2023-06-04T09:38:06;3.40;;;3.10;;
920;SDS011;447;51.332;6.778;2023-06-04T09:40:37;3.00;;;2.70;;
920;SDS011;447;51.332;6.778;2023-06-04T09:43:04;3.87;;;2.50;;
920;SDS011;447;51.332;6.778;2023-06-04T09:45:30;3.30;;;2.47;;
920;SDS011;447;51.332;6.778;2023-06-04T09:47:58;4.70;;;2.30;;
920;SDS011;447;51.332;6.778;2023-06-04T09:50:29;5.73;;;2.43;;
920;SDS011;447;51.332;6.778;2023-06-04T09:52:56;3.97;;;2.47;;
920;SDS011;447;51.332;6.778;2023-06-04T09:55:22;3.17;;;2.87;;
920;SDS011;447;51.332;6.778;2023-06-04T09:57:52;4.00;;;2.53;;
920;SDS011;447;51.332;6.778;2023-06-04T10:00:22;2.63;;;2.10;;
920;SDS011;447;51.332;6.778;2023-06-04T10:02:49;2.80;;;2.53;;
920;SDS011;447;51.332;6.778;2023-06-04T10:05:21;3.07;;;2.27;;
920;SDS011;447;51.332;6.778;2023-06-04T10:07:51;4.10;;;2.43;;
920;SDS011;447;51.332;6.778;2023-06-04T10:10:20;2.40;;;2.20;;
920;SDS011;447;51.332;6.778;2023-06-04T10:12:54;2.40;;;2.13;;
920;SDS011;447;51.332;6.778;2023-06-04T10:15:33;3.13;;;2.27;;
920;SDS011;447;51.332;6.778;2023-06-04T10:18:01;2.27;;;2.17;;
920;SDS011;447;51.332;6.778;2023-06-04T10:20:31;3.10;;;2.80;;
920;SDS011;447;51.332;6.778;2023-06-04T10:23:00;2.87;;;2.20;;
920;SDS011;447;51.332;6.778;2023-06-04T10:25:29;2.87;;;2.60;;
920;SDS011;447;51.332;6.778;2023-06-04T10:27:59;3.13;;;2.83;;
920;SDS011;447;51.332;6.778;2023-06-04T10:30:31;2.70;;;2.40;;
920;SDS011;447;51.332;6.778;2023-06-04T10:33:02;3.53;;;2.40;;
920;SDS011;447;51.332;6.778;2023-06-04T10:35:35;2.70;;;2.40;;
920;SDS011;447;51.332;6.778;2023-06-04T10:38:08;2.67;;;2.20;;
920;SDS011;447;51.332;6.778;2023-06-04T10:40:38;4.33;;;2.73;;
920;SDS011;447;51.332;6.778;2023-06-04T10:43:12;4.43;;;2.60;;
920;SDS011;447;51.332;6.778;2023-06-04T10:45:44;5.10;;;2.87;;
920;SDS011;447;51.332;6.778;2023-06-04T10:48:11;3.87;;;2.73;;
920;SDS011;447;51.332;6.778;2023-06-04T10:50:51;2.23;;;2.03;;
920;SDS011;447;51.332;6.778;2023-06-04T10:53:20;2.63;;;2.37;;
920;SDS011;447;51.332;6.778;2023-06-04T10:55:49;2.90;;;2.60;;
920;SDS011;447;51.332;6.778;2023-06-04T10:58:15;4.03;;;2.37;;
920;SDS011;447;51.332;6.778;2023-06-04T11:00:46;3.30;;;3.00;;
920;SDS011;447;51.332;6.778;2023-06-04T11:03:14;2.30;;;2.10;;
920;SDS011;447;51.332;6.778;2023-06-04T11:05:44;2.43;;;2.23;;
920;SDS011;447;51.332;6.778;2023-06-04T11:08:25;2.83;;;2.20;;
920;SDS011;447;51.332;6.778;2023-06-04T11:10:55;2.70;;;2.47;;
920;SDS011;447;51.332;6.778;2023-06-04T11:13:26;3.27;;;2.60;;
920;SDS011;447;51.332;6.778;2023-06-04T11:15:52;2.73;;;2.53;;
920;SDS011;447;51.332;6.778;2023-06-04T11:18:19;2.93;;;2.67;;
920;SDS011;447;51.332;6.778;2023-06-04T11:21:00;3.30;;;2.40;;
920;SDS011;447;51.332;6.778;2023-06-04T11:23:27;3.00;;;2.70;;
920;SDS011;447;51.332;6.778;2023-06-04T11:25:56;2.40;;;2.20;;
920;SDS011;447;51.332;6.778;2023-06-04T11:28:23;2.50;;;2.23;;
920;SDS011;447;51.332;6.778;2023-06-04T11:31:01;2.87;;;2.23;;
920;SDS011;447;51.332;6.778;2023-06-04T11:33:30;2.80;;;2.50;;
920;SDS011;447;51.332;6.778;2023-06-04T11:36:10;3.13;;;1.90;;
920;SDS011;447;51.332;6.778;2023-06-04T11:41:32;1.97;;;1.87;;
920;SDS011;447;51.332;6.778;2023-06-04T11:44:04;4.33;;;2.20;;
920;SDS011;447;51.332;6.778;2023-06-04T11:46:43;3.03;;;2.37;;
920;SDS011;447;51.332;6.778;2023-06-04T11:49:16;2.70;;;2.50;;
920;SDS011;447;51.332;6.778;2023-06-04T11:51:50;5.00;;;2.70;;
920;SDS011;447;51.332;6.778;2023-06-04T11:54:22;3.50;;;2.40;;
920;SDS011;447;51.332;6.778;2023-06-04T11:56:52;2.90;;;2.70;;
920;SDS011;447;51.332;6.778;2023-06-04T11:59:18;2.87;;;2.57;;
920;SDS011;447;51.332;6.778;2023-06-04T12:01:50;5.10;;;2.57;;
920;SDS011;447;51.332;6.778;2023-06-04T12:04:19;2.90;;;2.63;;
920;SDS011;447;51.332;6.778;2023-06-04T12:06:55;3.00;;;2.60;;
920;SDS011;447;51.332;6.778;2023-06-04T12:09:32;3.50;;;2.60;;
920;SDS011;447;51.332;6.778;2023-06-04T12:12:07;2.60;;;2.40;;
920;SDS011;447;51.332;6.778;2023-06-04T12:14:42;3.90;;;2.53;;
920;SDS011;447;51.332;6.778;2023-06-04T12:17:12;2.93;;;2.50;;
920;SDS011;447;51.332;6.778;2023-06-04T12:19:48;2.67;;;2.47;;
920;SDS011;447;51.332;6.778;2023-06-04T12:22:18;3.20;;;2.90;;
920;SDS011;447;51.332;6.778;2023-06-04T12:24:51;2.50;;;2.30;;
920;SDS011;447;51.332;6.778;2023-06-04T12:27:25;3.50;;;2.67;;
920;SDS011;447;51.332;6.778;2023-06-04T12:29:54;3.00;;;2.80;;
920;SDS011;447;51.332;6.778;2023-06-04T12:32:24;3.10;;;2.30;;
920;SDS011;447;51.332;6.778;2023-06-04T12:34:52;2.97;;;2.70;;
920;SDS011;447;51.332;6.778;2023-06-04T12:37:20;3.37;;;2.50;;
920;SDS011;447;51.332;6.778;2023-06-04T12:39:51;3.00;;;2.70;;
920;SDS011;447;51.332;6.778;2023-06-04T12:42:19;3.20;;;2.90;;
920;SDS011;447;51.332;6.778;2023-06-04T12:44:45;2.87;;;2.57;;
920;SDS011;447;51.332;6.778;2023-06-04T12:47:14;3.40;;;2.50;;
920;SDS011;447;51.332;6.778;2023-06-04T12:49:42;3.93;;;2.93;;
920;SDS011;447;51.332;6.778;2023-06-04T12:52:08;2.90;;;2.70;;
920;SDS011;447;51.332;6.778;2023-06-04T12:54:36;3.53;;;2.77;;
920;SDS011;447;51.332;6.778;2023-06-04T12:57:05;2.60;;;2.40;;
920;SDS011;447;51.332;6.778;2023-06-04T12:59:33;3.10;;;2.50;;
920;SDS011;447;51.332;6.778;2023-06-04T13:02:01;2.90;;;2.60;;
920;SDS011;447;51.332;6.778;2023-06-04T13:04:33;3.23;;;2.47;;
920;SDS011;447;51.332;6.778;2023-06-04T13:06:59;3.20;;;2.43;;
920;SDS011;447;51.332;6.778;2023-06-04T13:09:28;2.93;;;2.73;;
920;SDS011;447;51.332;6.778;2023-06-04T13:11:58;3.07;;;2.80;;
920;SDS011;447;51.332;6.778;2023-06-04T13:14:24;2.83;;;2.60;;
920;SDS011;447;51.332;6.778;2023-06-04T13:16:50;2.50;;;2.30;;
920;SDS011;447;51.332;6.778;2023-06-04T13:19:18;3.40;;;2.20;;
920;SDS011;447;51.332;6.778;2023-06-04T13:21:47;2.87;;;2.57;;
920;SDS011;447;51.332;6.778;2023-06-04T13:24:15;3.07;;;2.83;;
920;SDS011;447;51.332;6.778;2023-06-04T13:26:46;3.13;;;2.83;;
920;SDS011;447;51.332;6.778;2023-06-04T13:29:15;3.40;;;3.10;;
920;SDS011;447;51.332;6.778;2023-06-04T13:31:41;2.70;;;2.50;;
920;SDS011;447;51.332;6.778;2023-06-04T13:34:07;3.57;;;2.70;;
920;SDS011;447;51.332;6.778;2023-06-04T13:36:33;2.87;;;2.63;;
920;SDS011;447;51.332;6.778;2023-06-04T13:39:00;3.97;;;2.63;;
920;SDS011;447;51.332;6.778;2023-06-04T13:41:29;2.90;;;2.70;;
920;SDS011;447;51.332;6.778;2023-06-04T13:43:57;2.70;;;2.50;;
920;SDS011;447;51.332;6.778;2023-06-04T13:46:26;2.97;;;2.53;;
920;SDS011;447;51.332;6.778;2023-06-04T13:48:54;3.93;;;2.57;;
920;SDS011;447;51.332;6.778;2023-06-04T13:51:23;3.67;;;3.23;;
920;SDS011;447;51.332;6.778;2023-06-04T13:53:51;3.03;;;2.67;;
920;SDS011;447;51.332;6.778;2023-06-04T13:56:20;3.40;;;3.10;;
920;SDS011;447;51.332;6.778;2023-06-04T13:58:45;3.50;;;2.60;;
920;SDS011;447;51.332;6.778;2023-06-04T14:01:14;3.30;;;2.70;;
920;SDS011;447;51.332;6.778;2023-06-04T14:03:44;3.47;;;3.03;;
920;SDS011;447;51.332;6.778;2023-06-04T14:06:10;3.60;;;2.93;;
920;SDS011;447;51.332;6.778;2023-06-04T14:08:36;3.83;;;2.20;;
920;SDS011;447;51.332;6.778;2023-06-04T14:11:02;4.97;;;3.00;;
920;SDS011;447;51.332;6.778;2023-06-04T14:13:30;3.07;;;2.77;;
920;SDS011;447;51.332;6.778;2023-06-04T14:16:01;4.40;;;2.43;;
920;SDS011;447;51.332;6.778;2023-06-04T14:18:27;2.33;;;2.13;;
920;SDS011;447;51.332;6.778;2023-06-04T14:20:56;2.97;;;2.47;;
920;SDS011;447;51.332;6.778;2023-06-04T14:23:24;2.80;;;2.60;;
920;SDS011;447;51.332;6.778;2023-06-04T14:25:52;5.33;;;2.57;;
920;SDS011;447;51.332;6.778;2023-06-04T14:28:18;2.47;;;2.27;;
920;SDS011;447;51.332;6.778;2023-06-04T14:30:46;3.17;;;2.20;;
920;SDS011;447;51.332;6.778;2023-06-04T14:33:13;3.00;;;2.70;;
920;SDS011;447;51.332;6.778;2023-06-04T14:35:43;4.13;;;2.67;;
920;SDS011;447;51.332;6.778;2023-06-04T14:38:14;2.70;;;2.30;;
920;SDS011;447;51.332;6.778;2023-06-04T14:40:41;5.13;;;2.60;;
920;SDS011;447;51.332;6.778;2023-06-04T14:43:10;2.80;;;2.60;;
920;SDS011;447;51.332;6.778;2023-06-04T14:45:41;2.60;;;2.40;;
920;SDS011;447;51.332;6.778;2023-06-04T14:48:07;2.40;;;2.20;;
920;SDS011;447;51.332;6.778;2023-06-04T14:50:34;2.50;;;2.30;;
920;SDS011;447;51.332;6.778;2023-06-04T14:53:02;2.63;;;2.43;;
920;SDS011;447;51.332;6.778;2023-06-04T14:55:32;2.90;;;2.60;;
920;SDS011;447;51.332;6.778;2023-06-04T14:57:59;3.70;;;2.40;;
920;SDS011;447;51.332;6.778;2023-06-04T15:00:29;3.10;;;2.53;;
920;SDS011;447;51.332;6.778;2023-06-04T15:02:55;3.70;;;2.87;;
920;SDS011;447;51.332;6.778;2023-06-04T15:05:21;2.80;;;2.40;;
920;SDS011;447;51.332;6.778;2023-06-04T15:07:49;2.50;;;2.30;;
920;SDS011;447;51.332;6.778;2023-06-04T15:10:15;2.53;;;2.17;;
920;SDS011;447;51.332;6.778;2023-06-04T15:12:41;4.80;;;2.50;;
920;SDS011;447;51.332;6.778;2023-06-04T15:15:13;3.63;;;2.37;;
920;SDS011;447;51.332;6.778;2023-06-04T15:17:39;2.50;;;2.30;;
920;SDS011;447;51.332;6.778;2023-06-04T15:20:08;2.73;;;2.50;;
920;SDS011;447;51.332;6.778;2023-06-04T15:22:34;3.27;;;2.40;;
920;SDS011;447;51.332;6.778;2023-06-04T15:25:02;2.63;;;2.43;;
920;SDS011;447;51.332;6.778;2023-06-04T15:27:32;2.50;;;2.30;;
920;SDS011;447;51.332;6.778;2023-06-04T15:30:03;3.63;;;2.67;;
920;SDS011;447;51.332;6.778;2023-06-04T15:32:29;2.80;;;2.50;;
920;SDS011;447;51.332;6.778;2023-06-04T15:34:58;2.80;;;2.60;;
920;SDS011;447;51.332;6.778;2023-06-04T15:37:27;2.53;;;2.27;;
920;SDS011;447;51.332;6.778;2023-06-04T15:39:56;3.37;;;2.80;;
920;SDS011;447;51.332;6.778;2023-06-04T15:42:25;2.57;;;2.37;;
920;SDS011;447;51.332;6.778;2023-06-04T15:44:51;2.73;;;2.53;;
920;SDS011;447;51.332;6.778;2023-06-04T15:47:19;3.10;;;2.13;;
920;SDS011;447;51.332;6.778;2023-06-04T15:49:48;3.20;;;2.70;;
920;SDS011;447;51.332;6.778;2023-06-04T15:52:16;6.10;;;2.40;;
920;SDS011;447;51.332;6.778;2023-06-04T15:54:44;5.13;;;2.13;;
920;SDS011;447;51.332;6.778;2023-06-04T15:57:10;2.70;;;2.50;;
920;SDS011;447;51.332;6.778;2023-06-04T15:59:38;2.50;;;2.30;;
920;SDS011;447;51.332;6.778;2023-06-04T16:02:05;2.70;;;2.50;;
920;SDS011;447;51.332;6.778;2023-06-04T16:04:31;2.90;;;2.13;;